• Join FlightAware (Why Join?)
  • Login
  • US Flag 
10:38AM EDT


 

Airport Tracker/Info


-or-


 

Live Flight TrackerFlight Track Log ✈ KAP927 ✈ 28-Aug-2013 ✈ KALB - KBOS

Flight Track Log - Related Links

Times and Time Zones

All times are in EDT time to prevent confusion due to time zone crossing. See the KAP927 flight status page for this flight to view local times or setup timezone preferences in your user account.

Time Position Orientation Groundspeed Altitude Reporting Facility
EDT Latitude Longitude Course Direction KTS MPH feet Rate Location/Type
10:00AM 42.7947 -73.7897 23° Northeast 121 139 1,500  Level Boston Center
10:01AM 42.7931 -73.7472 93° East 124 143 2,000 540 Climbing Boston Center
10:02AM 42.7894 -73.6964 96° East 121 139 2,600 540 Climbing Boston Center
10:03AM 42.7858 -73.6481 96° East 123 142 3,100 480 Climbing Boston Center
10:04AM 42.7864 -73.6028 89° East 126 145 3,600 480 Climbing Boston Center
10:05AM 42.7867 -73.5575 90° East 128 147 4,100 540 Climbing Boston Center
10:06AM 42.7850 -73.5094 93° East 129 148 4,700 540 Climbing Boston Center
10:07AM 42.7814 -73.4583 95° East 132 152 5,200 480 Climbing Boston Center
10:08AM 42.7797 -73.4075 93° East 139 160 5,700 480 Climbing Boston Center
10:09AM 42.7781 -73.3567 93° East 139 160 6,200 420 Climbing Boston Center
10:10AM 42.7661 -73.3056 108° East 139 160 6,600 360 Climbing Boston Center
10:11AM 42.7558 -73.2544 105° East 139 160 7,000 240 Climbing Boston Center
10:12AM 42.7481 -73.1978 101° East 150 173 7,100  Climbing Boston Center
10:13AM 42.7381 -73.1328 102° East 163 188 7,100  Level Boston Center
10:14AM 42.7258 -73.0675 104° East 170 196 7,100  Level Boston Center
10:15AM 42.7136 -73.0025 104° East 170 196 7,100  Level Boston Center
10:16AM 42.7036 -72.9372 102° East 170 196 7,100  Level Boston Center
10:17AM 42.6933 -72.8750 103° East 170 196 7,100  Level Boston Center
10:18AM 42.6833 -72.8158 103° East 165 190 7,100  Level Boston Center
10:19AM 42.6708 -72.7564 106° East 165 190 7,100  Level Boston Center
10:20AM 42.6647 -72.7111 100° East 165 190 7,100  Level Boston Center
10:21AM 42.6525 -72.6517 106° East 165 190 7,100  Level Boston Center
10:22AM 42.6419 -72.5953 104° East 160 184 7,100  Level Boston Center
10:23AM 42.6317 -72.5389 104° East 160 184 7,100  Level Boston Center
10:24AM 42.6214 -72.4794 103° East 160 184 7,100  Level Boston Center
10:25AM 42.6108 -72.4231 104° East 160 184 7,100  Level Boston Center
10:26AM 42.6025 -72.3667 101° East 155 178 7,100  Level Boston Center
10:27AM 42.5919 -72.3103 104° East 155 178 7,100  Level Boston Center
10:28AM 42.5775 -72.2456 107° East 155 178 7,100  Level Boston Center
10:29AM 42.5689 -72.1947 103° East 155 178 7,100  Level Boston Center
10:30AM 42.5583 -72.1300 102° East 155 178 7,100  Level Boston Center
10:31AM 42.5478 -72.0822 107° East 155 178 7,100  Level Boston Center
10:32AM 42.5372 -72.0203 103° East 150 173 7,100  Level Boston Center
10:33AM 42.5392 -71.9639 87° East 144 166 7,100  Level Boston Center
10:34AM 42.5306 -71.9075 102° East 144 166 7,100  Level Boston Center
10:35AM 42.5261 -71.8514 96° East 144 166 7,100  Level Boston Center
10:36AM 42.5217 -71.7950 96° East 144 166 7,100  Level Boston Center
10:37AM 42.5150 -71.7358 99° East 144 166 7,100  Level Boston Center
10:38AM 42.5103 -71.6769 96° East 144 166 7,100  Level Boston Center
10:39AM 42.5058 -71.6206 96° East 149 171 7,100 -180 Level Boston Center
10:40AM 42.4969 -71.5617 102° East 154 177 6,800 -300 Descending Boston Center
10:41AM 42.4922 -71.4969 96° East 162 186 6,600 -360 Descending Boston Center
10:42AM 42.4875 -71.4322 96° East 162 186 6,100 -720 Descending Boston Center
10:43AM 42.4892 -71.3589 88° East 180 207 5,200 -540 Descending Boston Center
10:44AM 42.4758 -71.2972 106° East 175 201 5,100 -360 Descending Boston Center
10:46AM 42.4333 -71.2333 132° Southeast 184 212 4,400 -420 Descending KA90
10:47AM 42.3833 -71.2167 166° South 179 206 4,100 -300 Descending KA90
10:48AM 42.3333 -71.1833 154° Southeast 161 185 3,900 -600 Descending KA90
10:49AM 42.3167 -71.1333 114° Southeast 180 207 3,000 -1,140 Descending KA90
10:49AM 42.3000 -71.0833 114° Southeast 160 184 1,800 -1,140 Descending KA90
10:50AM 42.3333 -71.0500 36° Northeast 148 170 900 -780 Descending KA90
10:51AM 42.3500 -71.0167 56° Northeast 119 137 300 -600 Descending KA90
10:53AM 42.3630 -71.0064 31° Northeast  Level Estimated
11:00AM 42.3630 -71.0064 270° West  Level Estimated